createdAt,value
2019-03-05T05:11:37.220Z,992.85
2019-03-05T05:12:37.214Z,993.03
2019-03-05T05:13:37.201Z,993.12
2019-03-05T05:14:37.188Z,993.08
2019-03-05T05:15:37.178Z,993.07
2019-03-05T05:16:37.167Z,992.99
2019-03-05T05:17:37.154Z,993.01
2019-03-05T05:18:37.142Z,993.10
2019-03-05T05:19:37.137Z,993.13
2019-03-05T05:21:37.116Z,993.27
2019-03-05T05:22:37.110Z,993.10
2019-03-05T05:23:37.090Z,993.23
2019-03-05T05:24:37.078Z,993.15
2019-03-05T05:25:37.064Z,993.16
2019-03-05T05:26:37.053Z,993.24
2019-03-05T05:27:37.041Z,993.28
2019-03-05T05:28:37.035Z,993.26
2019-03-05T05:29:37.024Z,993.21
2019-03-05T05:30:37.014Z,993.27
2019-03-05T05:31:37.001Z,993.24
2019-03-05T05:32:36.987Z,993.40
2019-03-05T05:33:36.973Z,993.42
2019-03-05T05:34:36.963Z,993.37
2019-03-05T05:35:36.963Z,993.40
2019-03-05T05:36:36.940Z,993.38
2019-03-05T05:37:36.929Z,993.34
2019-03-05T05:38:36.939Z,993.43
2019-03-05T05:39:36.912Z,993.36
2019-03-05T05:40:36.893Z,993.34
2019-03-05T05:41:36.882Z,993.35
2019-03-05T05:42:36.871Z,993.30
2019-03-05T05:43:36.860Z,993.34
2019-03-05T05:44:36.849Z,993.35
2019-03-05T05:45:36.840Z,993.42
2019-03-05T05:46:36.826Z,993.40
2019-03-05T05:47:36.816Z,993.41
2019-03-05T05:48:36.812Z,993.32
2019-03-05T05:49:36.796Z,993.47
2019-03-05T05:50:36.787Z,993.48
2019-03-05T05:51:36.772Z,993.46
2019-03-05T05:52:36.759Z,993.50
2019-03-05T05:53:36.748Z,993.50
2019-03-05T05:54:36.735Z,993.64
2019-03-05T05:55:36.731Z,993.51
2019-03-05T05:56:36.714Z,993.57
2019-03-05T05:57:36.710Z,993.60
2019-03-05T05:58:36.707Z,993.55
2019-03-05T05:59:36.679Z,993.59
2019-03-05T06:00:36.676Z,993.58
2019-03-05T06:01:36.669Z,993.61
2019-03-05T06:02:36.646Z,993.62
2019-03-05T06:03:37.893Z,993.61
2019-03-05T06:04:36.623Z,993.62
2019-03-05T06:05:36.611Z,993.58
2019-03-05T06:06:36.600Z,993.74
2019-03-05T06:07:36.594Z,993.74
2019-03-05T06:08:36.583Z,993.68
2019-03-05T06:09:36.567Z,993.74
2019-03-05T06:10:36.555Z,993.74
2019-03-05T06:11:36.547Z,993.77
2019-03-05T06:12:36.538Z,993.77
2019-03-05T06:13:36.527Z,993.83
2019-03-05T06:14:36.510Z,993.90
2019-03-05T06:15:36.498Z,993.80
2019-03-05T06:16:36.487Z,993.80
2019-03-05T06:17:36.476Z,993.94
2019-03-05T06:18:36.475Z,993.85
2019-03-05T06:19:36.457Z,993.94
2019-03-05T06:20:36.443Z,993.85
2019-03-05T06:21:36.432Z,993.86
2019-03-05T06:22:36.423Z,993.87
2019-03-05T06:23:36.412Z,993.87
2019-03-05T06:24:36.399Z,993.94
2019-03-05T06:25:36.385Z,994.00
2019-03-05T06:26:36.373Z,993.92
2019-03-05T06:27:36.367Z,994.00
2019-03-05T06:28:36.356Z,993.97
2019-03-05T06:29:36.346Z,994.01
2019-03-05T06:30:36.328Z,993.90
2019-03-05T06:31:36.324Z,994.02
2019-03-05T06:32:36.308Z,993.98
2019-03-05T06:33:36.299Z,994.01
2019-03-05T06:34:36.284Z,994.13
2019-03-05T06:35:36.274Z,994.04
2019-03-05T06:36:36.262Z,994.07
2019-03-05T06:37:36.254Z,994.14
2019-03-05T06:38:36.238Z,994.14
2019-03-05T06:39:36.228Z,994.12
2019-03-05T06:40:36.216Z,994.21
2019-03-05T06:41:36.205Z,994.15
2019-03-05T06:42:36.192Z,994.21
2019-03-05T06:43:36.184Z,994.23
2019-03-05T06:44:36.172Z,994.20
2019-03-05T06:45:36.163Z,994.27
2019-03-05T06:46:36.151Z,994.28
2019-03-05T06:47:36.139Z,994.32
2019-03-05T06:48:36.124Z,994.28
2019-03-05T06:49:36.121Z,994.31
2019-03-05T06:50:36.106Z,994.31
2019-03-05T06:51:36.091Z,994.32
2019-03-05T06:52:36.079Z,994.34
2019-03-05T06:53:36.068Z,994.40
2019-03-05T06:54:36.058Z,994.43
2019-03-05T06:55:36.045Z,994.45
2019-03-05T06:56:36.035Z,994.52
2019-03-05T06:57:36.024Z,994.46
2019-03-05T06:58:36.017Z,994.47
2019-03-05T06:59:36.002Z,994.54
2019-03-05T07:00:35.997Z,994.56
2019-03-05T07:01:35.984Z,994.53
2019-03-05T07:02:35.967Z,994.54
2019-03-05T07:03:35.961Z,994.59
2019-03-05T07:04:35.943Z,994.60
2019-03-05T07:05:35.937Z,994.65
2019-03-05T07:06:35.926Z,994.67
2019-03-05T07:07:35.912Z,994.64
2019-03-05T07:08:35.900Z,994.63
2019-03-05T07:09:35.892Z,994.74
2019-03-05T07:10:35.875Z,994.56
2019-03-05T07:11:35.867Z,994.69
2019-03-05T07:12:35.860Z,994.67
2019-03-05T07:13:35.841Z,994.64
2019-03-05T07:14:35.831Z,994.67
2019-03-05T07:15:35.822Z,994.62
2019-03-05T07:16:35.815Z,994.75
2019-03-05T07:17:35.800Z,994.66
2019-03-05T07:18:35.787Z,994.61
2019-03-05T07:19:35.777Z,994.71
2019-03-05T07:20:35.765Z,994.67
2019-03-05T07:21:35.760Z,994.75
2019-03-05T07:22:35.762Z,994.75
2019-03-05T07:23:35.738Z,994.73
2019-03-05T07:24:35.717Z,994.71
2019-03-05T07:25:35.707Z,994.73
2019-03-05T07:26:35.696Z,994.76
2019-03-05T07:27:35.685Z,994.75
2019-03-05T07:28:35.681Z,994.75
2019-03-05T07:29:35.663Z,994.80
2019-03-05T07:30:35.653Z,994.76
2019-03-05T07:31:35.642Z,994.84
2019-03-05T07:32:35.637Z,994.78
2019-03-05T07:33:35.620Z,994.89
2019-03-05T07:34:35.608Z,995.04
2019-03-05T07:35:35.599Z,994.83
2019-03-05T07:36:35.584Z,994.86
2019-03-05T07:37:35.579Z,995.07
2019-03-05T07:38:35.567Z,994.93
2019-03-05T07:39:35.554Z,994.92
2019-03-05T07:40:35.540Z,994.98
2019-03-05T07:41:35.528Z,994.88
2019-03-05T07:42:35.524Z,994.86
2019-03-05T07:43:36.713Z,995.07
2019-03-05T07:44:35.498Z,995.00
2019-03-05T07:45:35.481Z,994.91
2019-03-05T07:46:35.475Z,994.98
2019-03-05T07:47:35.465Z,994.89
2019-03-05T07:48:35.447Z,994.91
2019-03-05T07:49:43.631Z,994.93
2019-03-05T07:50:36.448Z,994.98
2019-03-05T07:51:35.415Z,994.97
2019-03-05T07:52:35.405Z,995.05
2019-03-05T07:53:35.390Z,994.96
2019-03-05T07:54:35.379Z,994.85
2019-03-05T07:55:35.373Z,994.90
2019-03-05T07:56:35.360Z,994.88
2019-03-05T07:57:35.353Z,994.89
2019-03-05T07:58:35.342Z,994.94
2019-03-05T07:59:35.332Z,995.01
2019-03-05T08:00:35.323Z,994.88
2019-03-05T08:01:35.305Z,995.11
2019-03-05T08:02:35.320Z,994.91
2019-03-05T08:03:35.283Z,994.89
2019-03-05T08:04:35.275Z,995.02
2019-03-05T08:05:35.262Z,995.11
2019-03-05T08:06:35.251Z,995.08
2019-03-05T08:07:35.239Z,995.00
2019-03-05T08:08:35.238Z,995.12
2019-03-05T08:09:35.215Z,995.12
2019-03-05T08:10:35.202Z,995.10
2019-03-05T08:11:35.193Z,995.18
2019-03-05T08:12:35.181Z,995.22
2019-03-05T08:13:35.170Z,995.30
2019-03-05T08:14:35.158Z,995.24
2019-03-05T08:15:35.148Z,995.16
2019-03-05T08:16:35.137Z,995.17
2019-03-05T08:17:35.126Z,995.17
2019-03-05T08:18:35.114Z,995.16
2019-03-05T08:19:35.105Z,995.26
2019-03-05T08:20:35.094Z,995.23
2019-03-05T08:21:35.081Z,995.29
2019-03-05T08:22:35.072Z,995.31
2019-03-05T08:23:35.059Z,995.33
2019-03-05T08:24:35.046Z,995.28
2019-03-05T08:25:35.039Z,995.33
2019-03-05T08:26:35.029Z,995.36
2019-03-05T08:27:35.017Z,995.41
2019-03-05T08:28:35.008Z,995.33
2019-03-05T08:29:34.992Z,995.51
2019-03-05T08:30:35.043Z,995.33
2019-03-05T08:31:34.968Z,995.49
2019-03-05T08:32:34.959Z,995.43
2019-03-05T08:33:34.950Z,995.48
2019-03-05T08:34:34.939Z,995.49
2019-03-05T08:35:34.925Z,995.52
2019-03-05T08:36:34.913Z,995.57
2019-03-05T08:37:34.906Z,995.55
2019-03-05T08:38:34.893Z,995.57
2019-03-05T08:39:34.880Z,995.58
2019-03-05T08:40:34.869Z,995.47
2019-03-05T08:41:34.863Z,995.53
2019-03-05T08:42:34.850Z,995.53
2019-03-05T08:43:34.840Z,995.57
2019-03-05T08:44:34.832Z,995.62
2019-03-05T08:45:34.823Z,995.70
2019-03-05T08:46:34.803Z,995.58
2019-03-05T08:47:34.791Z,995.72
2019-03-05T08:48:34.780Z,995.67
2019-03-05T08:49:34.770Z,995.74
2019-03-05T08:50:34.766Z,995.70
2019-03-05T08:51:34.755Z,995.91
2019-03-05T08:52:34.738Z,995.70
2019-03-05T08:53:34.728Z,995.69
2019-03-05T08:54:34.722Z,995.77
2019-03-05T08:55:34.704Z,995.73
2019-03-05T08:56:34.698Z,995.81
2019-03-05T08:57:34.682Z,995.81
2019-03-05T08:58:34.670Z,995.79
2019-03-05T08:59:34.745Z,995.87
2019-03-05T09:00:34.649Z,995.59
2019-03-05T09:01:34.636Z,995.81
2019-03-05T09:02:34.627Z,995.81
2019-03-05T09:03:34.621Z,995.81
2019-03-05T09:04:34.604Z,995.79
2019-03-05T09:05:34.591Z,995.88
2019-03-05T09:06:34.584Z,995.75
2019-03-05T09:07:34.573Z,995.82
2019-03-05T09:08:34.558Z,995.94
2019-03-05T09:09:34.545Z,995.90
2019-03-05T09:10:34.536Z,995.83
2019-03-05T09:11:34.524Z,995.88
2019-03-05T09:12:34.511Z,995.81
2019-03-05T09:13:34.523Z,995.87
2019-03-05T09:14:34.754Z,995.79
2019-03-05T09:15:34.510Z,995.86
2019-03-05T09:16:34.512Z,995.80
2019-03-05T09:17:34.459Z,995.97
2019-03-05T09:18:34.457Z,995.75
2019-03-05T09:19:34.458Z,995.95
2019-03-05T09:20:34.462Z,995.91
2019-03-05T09:21:34.466Z,995.95
2019-03-05T09:22:34.401Z,995.95
2019-03-05T09:23:34.387Z,995.94
2019-03-05T09:24:34.381Z,995.96
2019-03-05T09:25:34.367Z,995.98
2019-03-05T09:26:34.360Z,996.09
2019-03-05T09:27:34.343Z,995.96
2019-03-05T09:28:34.330Z,995.97
2019-03-05T09:29:34.319Z,995.86
2019-03-05T09:30:34.312Z,996.04
2019-03-05T09:31:34.305Z,995.88
2019-03-05T09:32:34.285Z,996.04
2019-03-05T09:33:34.276Z,996.17
2019-03-05T09:34:34.262Z,996.15
2019-03-05T09:35:34.253Z,996.17
2019-03-05T09:36:34.244Z,996.18
2019-03-05T09:37:34.229Z,996.13
2019-03-05T09:38:34.221Z,996.18
2019-03-05T09:39:34.206Z,996.28
2019-03-05T09:40:34.197Z,996.25
2019-03-05T09:41:34.185Z,996.23
2019-03-05T09:42:39.873Z,996.33
2019-03-05T09:43:58.641Z,996.35
2019-03-05T09:44:58.631Z,996.29
2019-03-05T09:45:58.620Z,996.42
2019-03-05T09:46:58.608Z,996.46
2019-03-05T09:47:58.603Z,996.40
2019-03-05T09:48:58.586Z,996.35
2019-03-05T09:49:58.575Z,996.30
2019-03-05T09:50:58.564Z,996.47
2019-03-05T09:51:58.557Z,996.45
2019-03-05T09:52:58.547Z,996.50
2019-03-05T09:53:58.533Z,996.55
2019-03-05T09:54:58.522Z,996.59
2019-03-05T09:55:58.510Z,996.63
2019-03-05T09:56:58.499Z,996.58
2019-03-05T09:58:07.402Z,996.61
2019-03-05T09:58:59.493Z,996.71
2019-03-05T09:59:58.463Z,996.70
2019-03-05T10:00:58.460Z,996.65
2019-03-05T10:01:58.443Z,996.82
2019-03-05T10:02:58.437Z,996.69
2019-03-05T10:03:58.421Z,996.74
2019-03-05T10:04:58.410Z,996.73
2019-03-05T10:05:58.398Z,996.81
2019-03-05T10:06:58.391Z,996.79
2019-03-05T10:07:58.381Z,996.64
2019-03-05T10:08:58.365Z,996.66
2019-03-05T10:09:58.355Z,996.79
2019-03-05T10:10:58.346Z,996.74
2019-03-05T10:11:58.331Z,996.84
2019-03-05T10:12:59.152Z,996.83
2019-03-05T10:13:58.314Z,996.81
2019-03-05T10:14:58.314Z,996.85
2019-03-05T10:15:58.286Z,996.75
2019-03-05T10:16:58.284Z,996.85
2019-03-05T10:17:58.274Z,996.81
2019-03-05T10:18:58.258Z,996.88
2019-03-05T10:19:58.242Z,996.94
2019-03-05T10:20:58.239Z,996.66
2019-03-05T10:21:58.230Z,996.79
2019-03-05T10:22:58.265Z,996.89
2019-03-05T10:23:58.197Z,996.82
2019-03-05T10:25:05.686Z,996.93
2019-03-05T10:26:22.657Z,996.86
2019-03-05T10:27:22.647Z,996.73
2019-03-05T10:28:22.637Z,996.86
2019-03-05T10:29:22.626Z,996.88
2019-03-05T10:30:25.004Z,996.75
2019-03-05T10:31:22.600Z,996.85
2019-03-05T10:32:22.599Z,996.81
2019-03-05T10:33:22.585Z,996.82
2019-03-05T10:34:22.566Z,996.88
2019-03-05T10:35:22.555Z,996.97
2019-03-05T10:36:22.546Z,996.92
2019-03-05T10:37:22.531Z,996.85
2019-03-05T10:38:22.526Z,996.94
2019-03-05T10:39:30.573Z,997.06
2019-03-05T10:40:46.987Z,996.86
2019-03-05T10:41:46.973Z,997.07
2019-03-05T10:42:48.161Z,996.88
2019-03-05T10:43:46.943Z,997.18
2019-03-05T10:44:46.929Z,996.86
2019-03-05T10:45:46.928Z,996.94
2019-03-05T10:46:46.906Z,996.94
2019-03-05T10:47:46.896Z,996.79
2019-03-05T10:48:46.895Z,996.87
2019-03-05T10:49:46.873Z,996.97
2019-03-05T10:50:46.866Z,996.87
2019-03-05T10:51:46.852Z,996.94
2019-03-05T10:52:46.843Z,997.01
2019-03-05T10:53:46.833Z,996.94
2019-03-05T10:54:46.818Z,997.06
2019-03-05T10:55:46.818Z,997.08
2019-03-05T10:56:46.800Z,996.91
2019-03-05T10:57:46.786Z,996.89
2019-03-05T10:58:46.775Z,996.95
2019-03-05T10:59:46.766Z,997.07
2019-03-05T11:00:46.755Z,996.89
2019-03-05T11:01:46.742Z,996.94
2019-03-05T11:02:46.738Z,996.90
2019-03-05T11:03:46.722Z,996.88
2019-03-05T11:04:46.711Z,996.97
2019-03-05T11:05:46.697Z,996.99
2019-03-05T11:06:46.688Z,996.97
2019-03-05T11:07:46.678Z,996.93
2019-03-05T11:08:46.670Z,996.91
2019-03-05T11:09:46.656Z,996.98
2019-03-05T11:10:46.651Z,996.89
2019-03-05T11:11:46.635Z,996.97
2019-03-05T11:12:46.619Z,996.96
2019-03-05T11:13:46.606Z,996.95
2019-03-05T11:14:46.601Z,996.87
2019-03-05T11:15:46.585Z,996.98
2019-03-05T11:16:46.576Z,996.91
2019-03-05T11:17:46.570Z,996.95
2019-03-05T11:18:46.552Z,997.01
2019-03-05T11:19:46.543Z,996.96
2019-03-05T11:20:46.532Z,996.94
2019-03-05T11:21:46.523Z,996.90
2019-03-05T11:22:46.510Z,996.98
2019-03-05T11:23:46.497Z,996.98
2019-03-05T11:24:46.489Z,997.06
2019-03-05T11:25:46.479Z,996.94
2019-03-05T11:26:46.465Z,997.09
2019-03-05T11:27:46.454Z,997.15
2019-03-05T11:28:46.444Z,996.99
2019-03-05T11:29:46.435Z,997.11
2019-03-05T11:30:46.417Z,997.02
2019-03-05T11:31:46.410Z,996.97
2019-03-05T11:32:46.399Z,997.02
2019-03-05T11:33:46.388Z,996.96
2019-03-05T11:34:46.378Z,997.01
2019-03-05T11:35:46.368Z,997.01
2019-03-05T11:36:46.351Z,996.93
2019-03-05T11:37:46.346Z,996.90
2019-03-05T11:38:46.329Z,996.94
2019-03-05T11:39:46.321Z,996.93
2019-03-05T11:40:46.310Z,997.09
2019-03-05T11:41:46.297Z,997.02
2019-03-05T11:42:46.695Z,996.97
2019-03-05T11:43:46.276Z,996.92
2019-03-05T11:44:58.846Z,996.97
2019-03-05T11:46:10.733Z,996.92
2019-03-05T11:47:10.727Z,996.97
2019-03-05T11:48:10.715Z,997.00
2019-03-05T11:49:10.699Z,996.97
2019-03-05T11:50:10.685Z,997.00
2019-03-05T11:51:10.678Z,996.96
2019-03-05T11:52:10.667Z,997.09
2019-03-05T11:53:10.651Z,997.13
2019-03-05T11:54:10.640Z,996.99
2019-03-05T11:55:10.627Z,997.00
2019-03-05T11:56:10.616Z,997.02
2019-03-05T11:57:10.606Z,997.10
2019-03-05T11:58:10.602Z,997.09
2019-03-05T11:59:10.583Z,997.05
2019-03-05T12:00:10.582Z,997.09
2019-03-05T12:01:10.558Z,997.09
2019-03-05T12:02:18.503Z,997.19
2019-03-05T12:03:35.024Z,997.33
2019-03-05T12:04:35.031Z,997.15
2019-03-05T12:05:35.021Z,997.33
2019-03-05T12:06:35.022Z,997.43
2019-03-05T12:07:35.026Z,997.33
2019-03-05T12:08:34.966Z,997.29
2019-03-05T12:09:34.950Z,997.37
2019-03-05T12:10:34.940Z,997.25
2019-03-05T12:11:34.928Z,997.30
2019-03-05T12:12:34.926Z,997.42
2019-03-05T12:13:34.909Z,997.39
2019-03-05T12:14:34.898Z,997.44
2019-03-05T12:15:34.882Z,997.46
2019-03-05T12:16:34.873Z,997.42
2019-03-05T12:17:34.865Z,997.47
2019-03-05T12:18:34.851Z,997.45
2019-03-05T12:19:34.838Z,997.43
2019-03-05T12:20:34.830Z,997.45
2019-03-05T12:21:34.824Z,997.33
2019-03-05T12:22:34.807Z,997.31
2019-03-05T12:23:34.794Z,997.33
2019-03-05T12:24:34.787Z,997.33
2019-03-05T12:25:36.090Z,997.33
2019-03-05T12:26:34.769Z,997.39
2019-03-05T12:27:35.965Z,997.37
2019-03-05T12:28:34.742Z,997.19
2019-03-05T12:29:34.728Z,997.32
2019-03-05T12:30:34.724Z,997.32
2019-03-05T12:31:34.705Z,997.31
2019-03-05T12:32:34.699Z,997.26
2019-03-05T12:33:34.703Z,997.35
2019-03-05T12:34:34.670Z,997.24
2019-03-05T12:35:35.614Z,997.21
2019-03-05T12:36:34.650Z,997.27
2019-03-05T12:37:34.637Z,997.21
2019-03-05T12:38:34.630Z,997.26
2019-03-05T12:39:34.614Z,997.37
2019-03-05T12:40:34.610Z,997.26
2019-03-05T12:41:34.591Z,997.33
2019-03-05T12:42:34.580Z,997.41
2019-03-05T12:43:34.579Z,997.30
2019-03-05T12:44:34.558Z,997.28
2019-03-05T12:45:34.546Z,997.37
2019-03-05T12:46:34.540Z,997.33
2019-03-05T12:47:34.528Z,997.21
2019-03-05T12:48:39.916Z,997.15
2019-03-05T12:49:58.978Z,997.16
2019-03-05T12:50:58.966Z,997.14
2019-03-05T12:51:58.960Z,997.17
2019-03-05T12:52:58.952Z,997.17
2019-03-05T12:53:58.933Z,997.22
2019-03-05T12:54:58.928Z,997.18
2019-03-05T12:55:58.919Z,997.24
2019-03-05T12:56:58.901Z,997.23
2019-03-05T12:57:58.891Z,997.27
2019-03-05T12:58:58.878Z,997.18
2019-03-05T12:59:58.867Z,997.23
2019-03-05T13:00:58.861Z,997.29
2019-03-05T13:01:58.862Z,997.15
2019-03-05T13:02:58.845Z,997.22
2019-03-05T13:03:58.829Z,997.24
2019-03-05T13:04:58.812Z,997.29
2019-03-05T13:05:58.800Z,997.38
2019-03-05T13:06:58.791Z,997.40
2019-03-05T13:07:58.781Z,997.57
2019-03-05T13:08:58.766Z,997.74
2019-03-05T13:09:58.764Z,997.91
2019-03-05T13:10:58.749Z,997.81
2019-03-05T13:11:58.742Z,997.71
2019-03-05T13:12:58.724Z,997.77
2019-03-05T13:14:06.044Z,997.80
2019-03-05T13:14:59.719Z,997.68
2019-03-05T13:15:58.689Z,997.69
2019-03-05T13:16:58.679Z,997.65
2019-03-05T13:17:58.668Z,997.67
2019-03-05T13:18:58.656Z,997.64
2019-03-05T13:19:58.645Z,997.70
2019-03-05T13:20:58.642Z,997.61
2019-03-05T13:21:58.622Z,997.72
2019-03-05T13:22:58.618Z,997.65
2019-03-05T13:23:58.600Z,997.63
2019-03-05T13:24:58.588Z,997.65
2019-03-05T13:25:58.579Z,997.65
2019-03-05T13:26:58.570Z,997.62
2019-03-05T13:28:02.285Z,997.64
2019-03-05T13:28:58.546Z,997.61
2019-03-05T13:29:58.538Z,997.58
2019-03-05T13:31:00.468Z,997.61
2019-03-05T13:32:22.987Z,997.65
2019-03-05T13:33:22.975Z,997.58
2019-03-05T13:34:22.966Z,997.64
2019-03-05T13:35:25.450Z,997.66
2019-03-05T13:36:50.619Z,997.65
2019-03-05T13:37:47.407Z,997.65
2019-03-05T13:38:47.396Z,997.65
2019-03-05T13:39:47.389Z,997.64
2019-03-05T13:40:47.380Z,997.65
2019-03-05T13:41:50.459Z,997.67
2019-03-05T13:43:11.834Z,997.66
2019-03-05T13:44:11.820Z,997.72
2019-03-05T13:45:11.806Z,997.71
2019-03-05T13:46:11.793Z,997.71
2019-03-05T13:47:13.412Z,997.57
2019-03-05T13:48:14.877Z,997.70
2019-03-05T13:49:40.664Z,997.69
2019-03-05T13:50:36.230Z,997.70
2019-03-05T13:51:36.219Z,997.70
2019-03-05T13:52:37.047Z,997.74
2019-03-05T13:53:36.210Z,997.80
2019-03-05T13:54:36.817Z,997.71
2019-03-05T13:55:36.175Z,997.72
2019-03-05T13:56:37.872Z,997.81
2019-03-05T13:57:36.154Z,997.67
2019-03-05T13:58:36.140Z,997.70
2019-03-05T13:59:36.129Z,997.67
2019-03-05T14:00:36.120Z,997.72
2019-03-05T14:01:36.107Z,997.72
2019-03-05T14:02:36.100Z,997.73
2019-03-05T14:03:36.087Z,997.78
2019-03-05T14:04:36.075Z,997.73
2019-03-05T14:05:36.061Z,997.66
2019-03-05T14:06:36.058Z,997.77
2019-03-05T14:07:36.046Z,997.85
2019-03-05T14:08:36.035Z,997.78
2019-03-05T14:09:36.015Z,997.82
2019-03-05T14:10:36.034Z,997.86
2019-03-05T14:11:36.006Z,997.85
2019-03-05T14:12:35.989Z,997.94
2019-03-05T14:13:35.970Z,997.86
2019-03-05T14:14:35.960Z,997.95
2019-03-05T14:15:35.973Z,997.93
2019-03-05T14:16:35.951Z,997.90
2019-03-05T14:17:35.948Z,997.99
2019-03-05T14:18:35.918Z,998.04
2019-03-05T14:19:35.934Z,998.03
2019-03-05T14:20:35.906Z,997.96
2019-03-05T14:21:35.881Z,998.04
2019-03-05T14:22:35.891Z,997.92
2019-03-05T14:23:35.951Z,997.98
2019-03-05T14:24:35.938Z,998.05
2019-03-05T14:25:35.848Z,998.09
2019-03-05T14:26:35.833Z,998.07
2019-03-05T14:27:35.836Z,998.07
2019-03-05T14:28:35.803Z,998.14
2019-03-05T14:29:35.803Z,998.08
2019-03-05T14:30:35.782Z,998.13
2019-03-05T14:31:35.796Z,998.15
2019-03-05T14:32:35.852Z,998.16
2019-03-05T14:33:35.777Z,998.12
2019-03-05T14:34:35.736Z,998.09
2019-03-05T14:35:35.720Z,998.19
2019-03-05T14:36:35.738Z,998.20
2019-03-05T14:37:35.722Z,998.18
2019-03-05T14:38:35.716Z,998.21
2019-03-05T14:39:35.689Z,998.16
2019-03-05T14:40:37.848Z,998.25
2019-03-05T14:41:35.654Z,998.19
2019-03-05T14:42:35.673Z,998.22
2019-03-05T14:43:35.635Z,998.24
2019-03-05T14:44:39.905Z,998.24
2019-03-05T14:45:35.633Z,998.24
2019-03-05T14:46:35.675Z,998.18
2019-03-05T14:47:35.658Z,998.20
2019-03-05T14:48:35.586Z,998.26
2019-03-05T14:49:35.575Z,998.19
2019-03-05T14:50:35.583Z,998.29
2019-03-05T14:51:35.583Z,998.34
2019-03-05T14:52:35.531Z,998.32
2019-03-05T14:53:35.544Z,998.41
2019-03-05T14:54:35.511Z,998.32
2019-03-05T14:55:35.527Z,998.36
2019-03-05T14:56:35.517Z,998.36
2019-03-05T14:57:35.471Z,998.31
2019-03-05T14:58:35.496Z,998.37
2019-03-05T14:59:35.470Z,998.30
2019-03-05T15:00:35.458Z,998.39
2019-03-05T15:01:35.445Z,998.41
2019-03-05T15:02:35.457Z,998.47
2019-03-05T15:03:35.435Z,998.38
2019-03-05T15:04:35.433Z,998.47
2019-03-05T15:05:35.391Z,998.52
2019-03-05T15:06:35.370Z,998.46
2019-03-05T15:07:35.395Z,998.54
2019-03-05T15:08:35.374Z,998.54
2019-03-05T15:09:35.343Z,998.54
2019-03-05T15:10:35.336Z,998.52
2019-03-05T15:11:35.341Z,998.51
2019-03-05T15:12:35.309Z,998.54
2019-03-05T15:13:35.314Z,998.54
2019-03-05T15:14:35.279Z,998.60
2019-03-05T15:15:35.268Z,998.60
2019-03-05T15:16:35.265Z,998.64
2019-03-05T15:17:35.281Z,998.59
2019-03-05T15:18:35.249Z,998.59
2019-03-05T15:19:35.260Z,998.68
2019-03-05T15:20:35.233Z,998.62
2019-03-05T15:21:35.223Z,998.62
2019-03-05T15:22:35.199Z,998.65
2019-03-05T15:23:35.207Z,998.63
2019-03-05T15:24:35.188Z,998.58
2019-03-05T15:25:35.190Z,998.71
2019-03-05T15:26:35.159Z,998.73
2019-03-05T15:27:35.133Z,998.75
2019-03-05T15:28:35.145Z,998.71
2019-03-05T15:29:35.160Z,998.69
2019-03-05T15:30:35.126Z,998.79
2019-03-05T15:31:35.093Z,998.79
2019-03-05T15:32:35.078Z,998.82
2019-03-05T15:33:35.066Z,998.87
2019-03-05T15:34:35.080Z,998.81
2019-03-05T15:35:35.077Z,998.90
2019-03-05T15:36:35.082Z,998.88
2019-03-05T15:37:35.063Z,998.86
2019-03-05T15:38:35.011Z,998.91
2019-03-05T15:39:35.042Z,998.83
2019-03-05T15:40:35.150Z,998.88
2019-03-05T15:41:35.035Z,998.92
2019-03-05T15:42:34.967Z,998.94
2019-03-05T15:43:34.983Z,998.99
2019-03-05T15:44:34.944Z,998.98
2019-03-05T15:45:34.991Z,998.91
2019-03-05T15:46:34.938Z,998.98
2019-03-05T15:47:34.956Z,999.03
2019-03-05T15:48:34.899Z,998.97
2019-03-05T15:49:34.927Z,998.94
2019-03-05T15:50:34.877Z,999.00
2019-03-05T15:51:34.880Z,998.90
2019-03-05T15:52:34.896Z,998.94
2019-03-05T15:53:34.850Z,998.95
2019-03-05T15:54:34.831Z,999.08
2019-03-05T15:55:34.825Z,999.05
2019-03-05T15:56:34.811Z,999.04
2019-03-05T15:57:34.795Z,999.05
2019-03-05T15:58:34.783Z,999.15
2019-03-05T15:59:34.800Z,999.13
2019-03-05T16:00:34.761Z,999.20
2019-03-05T16:01:34.749Z,999.11
2019-03-05T16:02:34.755Z,999.17
2019-03-05T16:03:34.725Z,999.13
2019-03-05T16:04:35.921Z,999.15
2019-03-05T16:05:34.702Z,999.21
2019-03-05T16:06:35.270Z,999.18
2019-03-05T16:07:34.682Z,999.26
2019-03-05T16:08:34.670Z,999.20
2019-03-05T16:09:35.026Z,999.19
2019-03-05T16:10:34.656Z,999.20
2019-03-05T16:11:35.236Z,999.23
2019-03-05T16:12:34.621Z,999.29
2019-03-05T16:13:34.607Z,999.32
2019-03-05T16:14:34.600Z,999.30
2019-03-05T16:15:34.587Z,999.35
2019-03-05T16:16:34.574Z,999.34
2019-03-05T16:17:34.563Z,999.48
2019-03-05T16:18:34.550Z,999.53
2019-03-05T16:19:34.537Z,999.55
2019-03-05T16:20:34.529Z,999.66
2019-03-05T16:21:37.214Z,999.72
2019-03-05T16:22:58.987Z,999.87
2019-03-05T16:24:01.689Z,999.89
2019-03-05T16:24:58.968Z,999.83
2019-03-05T16:25:58.944Z,1000.05
2019-03-05T16:26:58.938Z,1000.15
2019-03-05T16:28:02.179Z,1000.30
2019-03-05T16:28:59.928Z,1000.50
2019-03-05T16:29:58.901Z,1000.45
2019-03-05T16:30:58.894Z,1000.38
2019-03-05T16:31:58.878Z,1000.39
2019-03-05T16:33:00.011Z,1000.30
2019-03-05T16:33:58.851Z,1000.30
2019-03-05T16:34:58.840Z,1000.25
2019-03-05T16:35:58.846Z,1000.18
2019-03-05T16:37:01.963Z,1000.26
2019-03-05T16:38:23.333Z,1000.28
2019-03-05T16:39:27.451Z,1000.31
2019-03-05T16:40:47.782Z,1000.38
2019-03-05T16:41:47.773Z,1000.45
2019-03-05T16:42:47.763Z,1000.45
2019-03-05T16:43:47.747Z,1000.39
2019-03-05T16:44:47.737Z,1000.47
2019-03-05T16:45:47.726Z,1000.42
2019-03-05T16:46:47.717Z,1000.46
2019-03-05T16:47:47.707Z,1000.42
2019-03-05T16:48:47.692Z,1000.44
2019-03-05T16:49:47.685Z,1000.53
2019-03-05T16:50:47.677Z,1000.48
2019-03-05T16:51:47.669Z,1000.52
2019-03-05T16:52:47.650Z,1000.47
2019-03-05T16:53:47.645Z,1000.48
2019-03-05T16:54:47.636Z,1000.50
2019-03-05T16:55:47.619Z,1000.56
2019-03-05T16:56:47.604Z,1000.53
2019-03-05T16:57:47.591Z,1000.52
2019-03-05T16:58:47.582Z,1000.51
2019-03-05T16:59:47.570Z,1000.50
2019-03-05T17:00:49.192Z,1000.60
2019-03-05T17:01:47.549Z,1000.55
2019-03-05T17:02:47.536Z,1000.52
2019-03-05T17:03:47.526Z,1000.57
2019-03-05T17:04:47.520Z,1000.54
2019-03-05T17:05:47.510Z,1000.57
2019-03-05T17:06:47.495Z,1000.54
2019-03-05T17:07:47.483Z,1000.60
2019-03-05T17:08:47.473Z,1000.63
2019-03-05T17:09:47.464Z,1000.59
2019-03-05T17:10:47.448Z,1000.68
2019-03-05T17:11:47.439Z,1000.61
2019-03-05T17:12:47.427Z,1000.67
2019-03-05T17:13:47.416Z,1000.70
2019-03-05T17:14:47.403Z,1000.77
2019-03-05T17:15:47.393Z,1000.70
2019-03-05T17:16:47.383Z,1000.81
2019-03-05T17:17:47.375Z,1000.81
2019-03-05T17:18:47.364Z,1000.78
2019-03-05T17:19:47.349Z,1000.81
2019-03-05T17:20:47.337Z,1000.87
2019-03-05T17:21:47.326Z,1000.91
2019-03-05T17:22:47.318Z,1000.94
2019-03-05T17:23:47.306Z,1000.92
2019-03-05T17:24:47.292Z,1000.99
2019-03-05T17:25:47.282Z,1001.01
2019-03-05T17:26:47.269Z,1001.03
2019-03-05T17:27:47.258Z,1001.01
2019-03-05T17:28:47.249Z,1001.06
2019-03-05T17:29:47.239Z,1001.03
2019-03-05T17:30:47.228Z,1001.06
2019-03-05T17:31:47.215Z,1001.06
2019-03-05T17:32:47.205Z,1001.10
2019-03-05T17:33:47.190Z,1001.23
2019-03-05T17:34:47.180Z,1001.30
2019-03-05T17:35:47.169Z,1001.29
2019-03-05T17:36:47.157Z,1001.32
2019-03-05T17:37:47.146Z,1001.32
2019-03-05T17:38:47.135Z,1001.40
2019-03-05T17:39:47.125Z,1001.44
2019-03-05T17:40:47.112Z,1001.47
2019-03-05T17:41:47.106Z,1001.54
2019-03-05T17:42:47.091Z,1001.50
2019-03-05T17:43:47.081Z,1001.50